Time;durP1;ratioP1;P1;durP2;ratioP2;P2;SDS_P1;SDS_P2;PMS_P1;PMS_P2;Temp;Humidity;BMP_temperature;BMP_pressure;BME280_temperature;BME280_humidity;BME280_pressure;Samples;Min_cycle;Max_cycle;Signal;HPM_P1;HPM_P2
2021/11/13 00:04:12;;;;;;;65.45;31.48;;;;;;;5.59;100.00;101119.13;10191001;28;20053;-67
2021/11/13 00:09:10;;;;;;;68.28;32.10;;;;;;;5.57;100.00;101115.88;10192573;28;20045;-68
2021/11/13 00:14:12;;;;;;;73.60;34.05;;;;;;;5.60;100.00;101126.16;10187114;28;20042;-67
2021/11/13 00:19:10;;;;;;;71.50;31.85;;;;;;;5.59;100.00;101116.41;10185603;28;20554;-67
2021/11/13 00:24:07;;;;;;;72.45;33.95;;;;;;;5.58;100.00;101095.78;10185015;28;20471;-68
2021/11/13 00:29:04;;;;;;;66.22;32.38;;;;;;;5.54;100.00;101089.28;10189190;28;20053;-68
2021/11/13 00:34:00;;;;;;;72.18;34.05;;;;;;;5.48;100.00;101090.38;10185712;28;20084;-68
2021/11/13 00:38:57;;;;;;;74.57;36.45;;;;;;;5.48;100.00;101090.38;10190102;28;20049;-68
2021/11/13 00:43:54;;;;;;;69.45;31.55;;;;;;;5.44;100.00;101084.69;10181121;28;20559;-68
2021/11/13 00:48:50;;;;;;;74.03;31.88;;;;;;;5.40;100.00;101094.44;10198372;28;20053;-68
2021/11/13 00:53:47;;;;;;;68.43;32.88;;;;;;;5.40;100.00;101090.94;10189736;28;20526;-68
2021/11/13 00:58:43;;;;;;;71.78;34.55;;;;;;;5.41;100.00;101089.84;10180760;28;20054;-68
2021/11/13 01:03:40;;;;;;;69.50;32.03;;;;;;;5.41;100.00;101100.72;10188473;28;20077;-67
2021/11/13 01:08:37;;;;;;;77.68;35.10;;;;;;;5.47;100.00;101096.88;10178847;28;20505;-68
2021/11/13 01:13:33;;;;;;;68.15;31.95;;;;;;;5.47;100.00;101067.03;10185551;28;20783;-68
2021/11/13 01:18:30;;;;;;;75.85;33.17;;;;;;;5.41;100.00;101068.16;10184535;28;22291;-67
2021/11/13 01:23:26;;;;;;;75.85;33.22;;;;;;;5.41;100.00;101084.44;10191716;28;20050;-69
2021/11/13 01:28:23;;;;;;;69.20;31.38;;;;;;;5.34;100.00;101092.00;10187811;28;20050;-68
2021/11/13 01:33:20;;;;;;;72.72;32.30;;;;;;;5.28;100.00;101097.44;10186131;28;20069;-67
2021/11/13 01:38:17;;;;;;;74.18;33.80;;;;;;;5.25;100.00;101098.00;10187189;28;20088;-68
2021/11/13 01:43:14;;;;;;;73.20;31.17;;;;;;;5.19;100.00;101088.22;10187878;28;20073;-68
2021/11/13 01:48:12;;;;;;;63.78;31.50;;;;;;;5.27;100.00;101084.19;10185906;28;20077;-67
2021/11/13 01:53:09;;;;;;;67.50;31.27;;;;;;;5.32;100.00;101075.22;10182531;28;20447;-67
2021/11/13 01:58:12;;;;;;;69.88;30.85;;;;;;;5.32;100.00;101070.63;10169782;28;20089;-68
2021/11/13 02:03:10;;;;;;;60.75;28.15;;;;;;;5.32;100.00;101069.81;10179680;28;20045;-67
2021/11/13 02:08:07;;;;;;;69.90;31.63;;;;;;;5.39;100.00;101063.00;10184616;28;20049;-67
2021/11/13 02:13:03;;;;;;;73.90;32.55;;;;;;;5.39;100.00;101065.72;10186949;28;20449;-68
2021/11/13 02:18:00;;;;;;;67.25;31.40;;;;;;;5.39;100.00;101070.34;10174987;28;20508;-67
2021/11/13 02:23:00;;;;;;;65.97;30.50;;;;;;;5.31;100.00;101062.75;10186260;28;20492;-69
2021/11/13 02:27:58;;;;;;;58.00;30.23;;;;;;;5.24;100.00;101061.16;10185684;28;20049;-67
2021/11/13 02:32:55;;;;;;;66.80;32.10;;;;;;;5.30;100.00;101064.66;10177133;28;20125;-70
2021/11/13 02:37:52;;;;;;;65.60;29.25;;;;;;;5.28;100.00;101053.25;10194460;28;20042;-66
2021/11/13 02:42:49;;;;;;;60.53;30.95;;;;;;;5.40;100.00;101056.47;10195329;28;20042;-67
2021/11/13 02:47:49;;;;;;;58.30;29.75;;;;;;;5.42;100.00;101058.94;10182792;28;20573;-69
2021/11/13 02:52:52;;;;;;;58.85;29.30;;;;;;;5.39;100.00;101057.59;10191324;28;20459;-67
2021/11/13 02:57:49;;;;;;;;;;;;;;;5.36;100.00;101049.16;10180729;28;20054;-67
2021/11/13 03:02:46;;;;;;;57.75;28.95;;;;;;;5.38;100.00;101052.41;10189816;28;19921;-67
2021/11/13 03:07:44;;;;;;;60.05;28.65;;;;;;;5.37;100.00;101058.94;10190303;28;20053;-70
2021/11/13 03:12:40;;;;;;;58.78;31.05;;;;;;;5.44;100.00;101054.03;10191678;28;20077;-69
2021/11/13 03:17:37;;;;;;;57.95;29.42;;;;;;;5.50;100.00;101050.25;10182903;28;20084;-69
2021/11/13 03:22:36;;;;;;;53.95;28.30;;;;;;;5.49;100.00;101043.19;10198141;28;20132;-70
2021/11/13 03:27:34;;;;;;;54.45;27.58;;;;;;;5.53;100.00;101044.25;10192695;28;20419;-69
2021/11/13 03:32:31;;;;;;;52.15;27.83;;;;;;;5.59;100.00;101043.16;10181715;28;20180;-67
2021/11/13 03:37:27;;;;;;;57.10;28.63;;;;;;;5.63;100.00;101038.78;10199044;28;20049;-69
2021/11/13 03:42:27;;;;;;;53.35;27.98;;;;;;;5.62;100.00;101053.44;10192211;28;20126;-69
2021/11/13 03:47:24;;;;;;;58.03;29.17;;;;;;;5.63;100.00;101044.22;10190234;28;20072;-69
2021/11/13 03:52:20;;;;;;;60.15;31.00;;;;;;;5.67;100.00;101049.91;10183326;28;20062;-69
2021/11/13 03:57:17;;;;;;;49.08;26.85;;;;;;;5.68;100.00;101046.09;10192522;28;20083;-69
2021/11/13 04:02:13;;;;;;;53.97;28.48;;;;;;;5.65;100.00;101052.09;10190072;28;20042;-70
2021/11/13 04:07:10;;;;;;;53.72;27.13;;;;;;;5.61;100.00;101040.97;10186534;28;20096;-69
2021/11/13 04:12:09;;;;;;;55.40;30.23;;;;;;;5.60;100.00;101047.50;10193542;28;20812;-69
2021/11/13 04:17:06;;;;;;;53.83;26.60;;;;;;;5.62;100.00;101048.03;10187172;28;20050;-68
2021/11/13 04:22:03;;;;;;;50.97;27.23;;;;;;;5.58;100.00;101051.56;10192314;28;20046;-69
2021/11/13 04:27:02;;;;;;;55.40;29.35;;;;;;;5.60;100.00;101044.78;10188628;28;20492;-69
2021/11/13 04:31:58;;;;;;;55.65;28.58;;;;;;;5.60;100.00;101055.63;10190574;28;20049;-69
2021/11/13 04:36:55;;;;;;;49.20;27.13;;;;;;;5.62;100.00;101053.44;10182283;28;20104;-69
2021/11/13 04:41:53;;;;;;;55.38;28.48;;;;;;;5.68;100.00;101051.53;10188368;28;20108;-68
2021/11/13 04:46:50;;;;;;;53.35;28.08;;;;;;;5.68;100.00;101056.94;10189216;28;20069;-69
2021/11/13 04:51:46;;;;;;;54.35;30.17;;;;;;;5.76;100.00;101053.69;10185130;28;20076;-68
2021/11/13 04:56:43;;;;;;;52.85;27.90;;;;;;;5.74;100.00;101050.44;10180686;28;20077;-68
2021/11/13 05:01:39;;;;;;;53.65;27.98;;;;;;;5.76;100.00;101061.00;10182871;28;20561;-69
2021/11/13 05:06:36;;;;;;;51.17;27.77;;;;;;;5.72;100.00;101066.16;10173887;28;20088;-68
2021/11/13 05:11:32;;;;;;;59.35;28.85;;;;;;;5.67;100.00;101061.56;10181868;28;20084;-68
2021/11/13 05:16:29;;;;;;;59.72;30.73;;;;;;;5.66;100.00;101065.38;10195025;28;20733;-69
2021/11/13 05:21:26;;;;;;;55.50;29.30;;;;;;;5.61;100.00;101067.28;10184342;28;20042;-69
2021/11/13 05:26:23;;;;;;;54.22;29.70;;;;;;;5.60;100.00;101066.47;10193935;28;20132;-69
2021/11/13 05:31:19;;;;;;;56.72;28.00;;;;;;;5.60;100.00;101071.91;10186898;28;20046;-68
2021/11/13 05:36:16;;;;;;;57.63;30.23;;;;;;;5.55;100.00;101073.81;10178106;28;20062;-68
2021/11/13 05:41:12;;;;;;;60.53;30.48;;;;;;;5.59;100.00;101081.13;10185545;28;20404;-68
2021/11/13 05:46:09;;;;;;;53.97;27.88;;;;;;;5.55;100.00;101077.34;10187359;28;20512;-69
2021/11/13 05:51:05;;;;;;;56.20;28.50;;;;;;;5.48;100.00;101079.53;10183052;28;20045;-68
2021/11/13 05:56:02;;;;;;;52.70;28.25;;;;;;;5.53;100.00;101076.81;10180600;28;20053;-68
2021/11/13 06:01:07;;;;;;;58.47;30.25;;;;;;;5.48;100.00;101074.13;10183947;28;20057;-68
2021/11/13 06:06:03;;;;;;;55.67;28.05;;;;;;;5.48;100.00;101071.41;10181430;28;20081;-68
2021/11/13 06:10:59;;;;;;;56.25;29.02;;;;;;;5.49;100.00;101076.53;10184726;28;20050;-68
2021/11/13 06:15:56;;;;;;;62.35;29.77;;;;;;;5.42;100.00;101075.19;10172975;28;20096;-68
2021/11/13 06:20:53;;;;;;;59.20;30.15;;;;;;;5.47;100.00;101072.47;10185028;28;20046;-68
2021/11/13 06:25:50;;;;;;;48.53;26.95;;;;;;;5.47;100.00;101077.91;10188681;28;20107;-68
2021/11/13 06:30:47;;;;;;;55.38;28.95;;;;;;;5.45;100.00;101090.91;10191947;28;20042;-68
2021/11/13 06:35:43;;;;;;;55.95;30.00;;;;;;;5.45;100.00;101090.91;10177191;28;20467;-69
2021/11/13 06:40:40;;;;;;;57.13;30.08;;;;;;;5.49;100.00;101098.22;10182734;28;20042;-67
2021/11/13 06:45:37;;;;;;;54.67;29.10;;;;;;;5.49;100.00;101108.28;10180589;28;20092;-68
2021/11/13 06:50:34;;;;;;;51.95;28.70;;;;;;;5.52;100.00;101113.13;10176957;28;20073;-69
2021/11/13 06:55:32;;;;;;;58.38;30.77;;;;;;;5.57;100.00;101121.28;10177905;28;20050;-68
2021/11/13 07:00:29;;;;;;;53.95;29.20;;;;;;;5.55;100.00;101125.38;10178769;28;20476;-68
2021/11/13 07:05:27;;;;;;;51.55;27.95;;;;;;;5.59;100.00;101134.56;10185005;28;20053;-68
2021/11/13 07:10:25;;;;;;;52.90;28.35;;;;;;;5.58;100.00;101133.75;10186300;28;20049;-69
2021/11/13 07:15:24;;;;;;;52.38;29.25;;;;;;;5.62;100.00;101134.03;10180091;28;20097;-68
2021/11/13 07:20:21;;;;;;;54.05;28.65;;;;;;;5.63;100.00;101141.88;10189693;28;20081;-68
2021/11/13 07:25:17;;;;;;;51.67;29.33;;;;;;;5.69;100.00;101150.84;10175902;28;20041;-68
2021/11/13 07:30:17;;;;;;;49.25;27.70;;;;;;;5.67;100.00;101153.81;10187207;28;20054;-68
2021/11/13 07:35:13;;;;;;;48.60;26.30;;;;;;;5.77;100.00;101163.03;10192445;28;20046;-68
2021/11/13 07:40:10;;;;;;;50.50;28.55;;;;;;;5.78;100.00;101168.19;10202121;28;20496;-68
2021/11/13 07:45:07;;;;;;;49.55;28.15;;;;;;;5.77;100.00;101179.31;10191235;28;20070;-68
2021/11/13 07:50:04;;;;;;;51.88;26.25;;;;;;;5.79;100.00;101182.56;10186801;28;20448;-68
2021/11/13 07:55:01;;;;;;;49.63;27.30;;;;;;;5.76;100.00;101183.13;10195683;28;20042;-69
2021/11/13 07:59:57;;;;;;;47.63;27.83;;;;;;;5.82;100.00;101187.44;10184554;28;21237;-68
2021/11/13 08:04:54;;;;;;;47.05;27.13;;;;;;;5.77;100.00;101190.16;10186357;28;20125;-69
2021/11/13 08:09:50;;;;;;;51.75;27.40;;;;;;;5.86;100.00;101199.38;10186348;28;20080;-68
2021/11/13 08:14:47;;;;;;;48.20;26.88;;;;;;;5.91;100.00;101207.50;10183438;28;20073;-68
2021/11/13 08:19:43;;;;;;;51.97;26.73;;;;;;;5.90;100.00;101200.44;10187809;28;20104;-69
2021/11/13 08:24:40;;;;;;;40.72;25.85;;;;;;;5.92;100.00;101203.72;10185756;28;20045;-68
2021/11/13 08:29:37;;;;;;;47.13;26.80;;;;;;;5.96;100.00;101206.69;10200645;28;20508;-68
2021/11/13 08:34:35;;;;;;;46.92;25.33;;;;;;;5.87;100.00;101204.53;10188651;28;20038;-69
2021/11/13 08:39:34;;;;;;;44.85;27.15;;;;;;;5.89;100.00;101204.22;10203042;28;20070;-69
2021/11/13 08:44:31;;;;;;;40.60;24.88;;;;;;;5.87;100.00;101211.84;10182232;28;20404;-68
2021/11/13 08:49:27;;;;;;;42.05;25.85;;;;;;;5.94;100.00;101201.56;10184520;28;20068;-68
2021/11/13 08:54:24;;;;;;;40.60;22.75;;;;;;;5.92;100.00;101206.41;10179725;28;20506;-68
2021/11/13 08:59:20;;;;;;;45.63;25.92;;;;;;;6.01;100.00;101207.53;10187256;28;20046;-69
2021/11/13 09:04:17;;;;;;;40.88;24.50;;;;;;;6.03;100.00;101207.22;10180670;28;20061;-69
2021/11/13 09:09:14;;;;;;;42.45;24.73;;;;;;;6.03;100.00;101202.59;10186958;28;20081;-67
2021/11/13 09:14:14;;;;;;;41.47;24.23;;;;;;;6.05;100.00;101203.13;10177958;28;20471;-69
2021/11/13 09:19:11;;;;;;;42.30;24.50;;;;;;;6.13;100.00;101209.09;10178968;28;20541;-69
2021/11/13 09:24:08;;;;;;;50.20;24.02;;;;;;;6.10;100.00;101222.16;10181561;28;20082;-69
2021/11/13 09:29:06;;;;;;;44.88;24.48;;;;;;;6.11;100.00;101231.91;10179656;28;20452;-69
2021/11/13 09:34:02;;;;;;;43.05;24.88;;;;;;;6.10;100.00;101232.19;10180881;28;20042;-69
2021/11/13 09:38:59;;;;;;;39.55;22.90;;;;;;;6.14;100.00;101232.47;10188086;28;20453;-69
2021/11/13 09:43:56;;;;;;;39.00;22.25;;;;;;;6.18;100.00;101247.13;10184851;28;20056;-69
2021/11/13 09:48:54;;;;;;;37.17;23.30;;;;;;;6.22;100.00;101240.03;10188112;28;20072;-68
2021/11/13 09:53:51;;;;;;;37.63;24.27;;;;;;;6.20;100.00;101242.22;10188921;28;20068;-69
2021/11/13 09:58:48;;;;;;;39.70;25.30;;;;;;;6.30;100.00;101247.63;10187063;28;20045;-68
2021/11/13 10:03:47;;;;;;;37.13;23.95;;;;;;;6.27;100.00;101259.03;10191854;28;20100;-70
2021/11/13 10:08:49;;;;;;;39.10;22.63;;;;;;;6.31;100.00;101260.09;10187479;28;20046;-69
2021/11/13 10:13:52;;;;;;;39.75;22.65;;;;;;;6.34;100.00;101256.84;10181379;28;20042;-68
2021/11/13 10:18:53;;;;;;;44.63;25.38;;;;;;;6.44;100.00;101256.81;10184854;28;20050;-69
2021/11/13 10:23:52;;;;;;;40.80;23.83;;;;;;;6.53;100.00;101268.72;10191494;28;20090;-69
2021/11/13 10:28:56;;;;;;;40.97;24.05;;;;;;;6.58;100.00;101270.63;10199330;28;20073;-69
2021/11/13 10:33:57;;;;;;;38.85;23.48;;;;;;;6.63;100.00;101267.06;10189787;28;20042;-69
2021/11/13 10:39:07;;;;;;;38.13;22.38;;;;;;;6.65;100.00;101260.25;10179379;28;20043;-67
2021/11/13 10:44:04;;;;;;;43.63;24.13;;;;;;;6.71;100.00;101258.34;10189439;28;20049;-69
2021/11/13 10:49:00;;;;;;;38.05;22.45;;;;;;;6.73;100.00;101250.75;10189001;28;20107;-69
2021/11/13 10:54:06;;;;;;;38.85;23.02;;;;;;;6.82;100.00;101254.47;10183941;28;20476;-70
2021/11/13 10:59:04;;;;;;;36.05;22.13;;;;;;;6.91;100.00;101250.06;10194535;28;20061;-69
2021/11/13 11:04:06;;;;;;;37.75;22.52;;;;;;;6.95;100.00;101251.16;10180229;28;20042;-69
2021/11/13 11:09:31;;;;;;;34.27;20.67;;;;;;;6.99;100.00;101264.19;10194293;28;20107;-69
2021/11/13 11:14:30;;;;;;;35.97;22.60;;;;;;;7.01;100.00;101261.97;10193860;28;20038;-70
2021/11/13 11:19:33;;;;;;;38.28;23.27;;;;;;;7.00;100.00;101254.94;10196455;28;20038;-69
2021/11/13 11:24:45;;;;;;;34.47;21.43;;;;;;;6.98;100.00;101257.94;10196911;28;20037;-68
2021/11/13 11:30:00;;;;;;;36.05;21.05;;;;;;;7.04;100.00;101253.28;10192184;28;20049;-69
2021/11/13 11:34:59;;;;;;;39.53;22.00;;;;;;;7.02;100.00;101258.19;10191504;28;20072;-70
2021/11/13 11:40:00;;;;;;;33.47;22.10;;;;;;;7.10;100.00;101265.75;10188264;28;20077;-69
2021/11/13 11:45:00;;;;;;;35.03;22.10;;;;;;;7.17;100.00;101260.81;10186228;28;20178;-69
2021/11/13 11:49:59;;;;;;;37.17;22.10;;;;;;;7.22;100.00;101258.06;10186100;28;20075;-68
2021/11/13 11:54:56;;;;;;;33.83;21.63;;;;;;;7.25;100.00;101256.69;10186500;28;20534;-69
2021/11/13 11:59:57;;;;;;;38.13;21.25;;;;;;;7.24;100.00;101250.44;10181834;28;20726;-69
2021/11/13 12:05:06;;;;;;;35.25;21.08;;;;;;;7.28;100.00;101243.31;10179955;28;20042;-69
2021/11/13 12:10:15;;;;;;;36.58;22.00;;;;;;;7.30;100.00;101246.59;10187176;28;20484;-69
2021/11/13 12:15:18;;;;;;;39.58;22.20;;;;;;;7.36;100.00;101245.47;10187434;28;20092;-68
2021/11/13 12:20:23;;;;;;;35.35;22.77;;;;;;;7.46;100.00;101243.75;10179891;28;20046;-69
2021/11/13 12:25:23;;;;;;;39.78;20.85;;;;;;;7.57;100.00;101231.69;10188408;28;20442;-69
2021/11/13 12:30:40;;;;;;;40.00;22.90;;;;;;;7.67;100.00;101234.31;10184432;28;20133;-69
2021/11/13 12:35:54;;;;;;;30.63;19.67;;;;;;;7.75;100.00;101238.34;10191532;28;20104;-70
2021/11/13 12:41:20;;;;;;;29.60;18.90;;;;;;;7.82;100.00;101243.44;10199618;28;20073;-69
2021/11/13 12:46:28;;;;;;;35.80;18.93;;;;;;;7.78;100.00;101249.47;10208488;28;20049;-69
2021/11/13 12:51:25;;;;;;;28.13;18.90;;;;;;;7.83;100.00;101261.44;10212674;28;20045;-69
2021/11/13 12:56:49;;;;;;;25.80;17.83;;;;;;;7.78;100.00;101281.34;10196765;28;20053;-69
2021/11/13 13:01:54;;;;;;;26.05;16.50;;;;;;;7.73;100.00;101274.03;10208883;28;20500;-69
2021/11/13 13:06:53;;;;;;;29.48;18.45;;;;;;;7.70;100.00;101280.00;10199659;28;20574;-68
2021/11/13 13:11:50;;;;;;;25.60;16.48;;;;;;;7.74;100.00;101280.28;10213318;28;20041;-69
2021/11/13 13:16:48;;;;;;;27.10;16.90;;;;;;;7.74;100.00;101283.00;10192016;28;20042;-70
2021/11/13 13:21:49;;;;;;;25.65;17.20;;;;;;;7.78;100.00;101292.22;10201407;28;20069;-69
2021/11/13 13:26:47;;;;;;;30.05;19.65;;;;;;;7.76;100.00;101284.34;10191596;28;20076;-68
2021/11/13 13:32:02;;;;;;;29.20;18.27;;;;;;;7.77;100.00;101291.41;10216341;28;20046;-69
2021/11/13 13:37:15;;;;;;;35.70;19.45;;;;;;;7.74;100.00;101291.16;10200140;28;20081;-69
2021/11/13 13:42:12;;;;;;;;;;;;;;;7.73;100.00;101295.81;10217807;28;20038;-69
2021/11/13 13:47:09;;;;;;;32.65;19.13;;;;;;;7.67;100.00;101288.75;10204862;28;20359;-69
2021/11/13 13:52:08;;;;;;;27.38;18.35;;;;;;;7.73;100.00;101301.25;10208800;28;20489;-69
2021/11/13 13:57:11;;;;;;;33.72;20.38;;;;;;;7.75;100.00;101303.66;10201609;28;20073;-67
2021/11/13 14:02:11;;;;;;;32.08;19.50;;;;;;;7.75;100.00;101309.94;10190277;28;20570;-71
2021/11/13 14:07:21;;;;;;;30.08;18.05;;;;;;;7.76;100.00;101311.56;10188698;28;20054;-70
2021/11/13 14:12:19;;;;;;;30.63;18.77;;;;;;;7.77;100.00;101317.81;10188327;28;20100;-69
2021/11/13 14:17:19;;;;;;;33.08;20.50;;;;;;;7.77;100.00;101318.63;10185434;28;20045;-69
2021/11/13 14:22:16;;;;;;;33.42;20.65;;;;;;;7.75;100.00;101320.00;10191948;28;20050;-69
2021/11/13 14:27:14;;;;;;;32.97;19.05;;;;;;;7.73;100.00;101333.91;10182969;28;20057;-69
2021/11/13 14:32:18;;;;;;;30.10;18.85;;;;;;;7.72;100.00;101332.25;10189249;28;20050;-69
2021/11/13 14:37:17;;;;;;;36.47;21.38;;;;;;;7.73;100.00;101333.91;10197943;28;20053;-69
2021/11/13 14:42:19;;;;;;;36.90;21.23;;;;;;;7.75;100.00;101339.88;10193524;28;20077;-68
2021/11/13 14:47:21;;;;;;;37.13;20.08;;;;;;;7.77;100.00;101351.31;10194349;28;20080;-69
2021/11/13 14:52:19;;;;;;;32.85;19.58;;;;;;;7.78;100.00;101358.38;10195399;28;20042;-69
2021/11/13 14:57:16;;;;;;;37.83;20.98;;;;;;;7.77;100.00;101367.66;10190623;28;20123;-69
2021/11/13 15:02:22;;;;;;;34.45;18.70;;;;;;;7.66;100.00;101376.97;10189426;28;20069;-68
2021/11/13 15:07:20;;;;;;;31.65;18.98;;;;;;;7.71;100.00;101379.66;10189781;28;20046;-69
2021/11/13 15:12:20;;;;;;;32.92;20.17;;;;;;;7.68;100.00;101385.66;10194434;28;20062;-68
2021/11/13 15:17:26;;;;;;;36.53;21.30;;;;;;;7.68;100.00;101385.66;10193588;28;20467;-68
2021/11/13 15:22:31;;;;;;;32.63;18.52;;;;;;;7.65;100.00;101396.28;10189331;28;20173;-70
2021/11/13 15:28:14;;;;;;;31.83;19.10;;;;;;;7.64;100.00;101395.47;10187196;28;20827;-69
2021/11/13 15:33:16;;;;;;;39.85;19.27;;;;;;;7.66;100.00;101398.75;10189387;28;20062;-70
2021/11/13 15:38:22;;;;;;;37.70;20.50;;;;;;;7.66;100.00;101404.19;10196522;28;20456;-69
2021/11/13 15:43:21;;;;;;;35.50;19.42;;;;;;;7.67;100.00;101411.25;10179268;28;20046;-69
2021/11/13 15:48:20;;;;;;;32.35;19.00;;;;;;;7.67;100.00;101413.97;10172825;28;20495;-69
2021/11/13 15:53:17;;;;;;;39.92;20.40;;;;;;;7.65;100.00;101416.16;10189363;28;20057;-69
2021/11/13 15:58:14;;;;;;;35.33;20.00;;;;;;;7.66;100.00;101427.84;10190700;28;20077;-69
2021/11/13 16:03:10;;;;;;;30.40;17.98;;;;;;;7.66;100.00;101425.97;10191313;28;20046;-68
2021/11/13 16:08:06;;;;;;;37.10;19.70;;;;;;;7.67;100.00;101438.47;10189360;28;20046;-69
2021/11/13 16:13:04;;;;;;;33.63;18.38;;;;;;;7.70;100.00;101448.78;10191004;28;20070;-68
2021/11/13 16:18:01;;;;;;;34.92;20.20;;;;;;;7.69;100.00;101446.34;10190451;28;20081;-69
2021/11/13 16:22:57;;;;;;;39.92;21.02;;;;;;;7.69;100.00;101452.59;10193034;28;20104;-69
2021/11/13 16:27:54;;;;;;;40.50;20.83;;;;;;;7.68;100.00;101459.16;10193346;28;20129;-69
2021/11/13 16:32:51;;;;;;;37.03;20.13;;;;;;;7.72;100.00;101468.38;10186671;28;20100;-70
2021/11/13 16:38:13;;;;;;;32.45;19.98;;;;;;;7.73;100.00;101464.56;10194400;28;20053;-68
2021/11/13 16:43:10;;;;;;;33.28;18.20;;;;;;;7.63;100.00;101464.59;10187488;28;20120;-69
2021/11/13 16:48:09;;;;;;;40.72;20.98;;;;;;;7.74;100.00;101466.19;10189122;28;20058;-69
2021/11/13 16:53:13;;;;;;;38.72;20.70;;;;;;;7.74;100.00;101479.78;10191284;28;20126;-69
2021/11/13 16:58:10;;;;;;;46.97;24.85;;;;;;;7.70;100.00;101481.44;10195340;28;20565;-68
2021/11/13 17:03:06;;;;;;;42.65;20.52;;;;;;;7.59;100.00;101479.88;10198056;28;20053;-69
2021/11/13 17:08:04;;;;;;;33.95;20.75;;;;;;;7.59;100.00;101490.78;10189104;28;20088;-69
2021/11/13 17:13:00;;;;;;;39.80;20.77;;;;;;;7.61;100.00;101494.00;10186064;28;20049;-69
2021/11/13 17:17:57;;;;;;;36.28;21.27;;;;;;;7.57;100.00;101499.22;10187063;28;20105;-69
2021/11/13 17:22:55;;;;;;;45.22;23.70;;;;;;;7.56;100.00;101505.72;10182520;28;20111;-69
2021/11/13 17:27:52;;;;;;;39.55;21.15;;;;;;;7.53;100.00;101513.66;10190594;28;20557;-69
2021/11/13 17:32:50;;;;;;;42.22;22.02;;;;;;;7.59;100.00;101518.78;10186407;28;20042;-68
2021/11/13 17:37:49;;;;;;;40.53;21.88;;;;;;;7.59;100.00;101528.88;10178532;28;20073;-69
2021/11/13 17:42:46;;;;;;;38.65;20.08;;;;;;;7.55;100.00;101522.34;10176169;28;20073;-67
2021/11/13 17:47:43;;;;;;;37.67;20.75;;;;;;;7.58;100.00;101532.66;10174460;28;20723;-69
2021/11/13 17:52:40;;;;;;;39.17;20.58;;;;;;;7.57;100.00;101536.50;10182715;28;20037;-69
2021/11/13 17:57:37;;;;;;;38.13;20.35;;;;;;;7.59;100.00;101539.75;10187978;28;20503;-68
2021/11/13 18:02:33;;;;;;;38.58;20.38;;;;;;;7.59;100.00;101547.94;10187720;28;20046;-68
2021/11/13 18:07:35;;;;;;;37.40;21.70;;;;;;;7.53;100.00;101551.75;10188084;28;20095;-69
2021/11/13 18:12:32;;;;;;;33.42;21.15;;;;;;;7.62;100.00;101555.53;10185917;28;20495;-68
2021/11/13 18:17:28;;;;;;;37.80;20.73;;;;;;;7.62;100.00;101560.97;10180068;28;20074;-68
2021/11/13 18:22:25;;;;;;;30.92;19.10;;;;;;;7.66;100.00;101572.94;10189811;28;20045;-67
2021/11/13 18:27:21;;;;;;;33.53;19.52;;;;;;;7.61;100.00;101569.41;10174420;28;20096;-68
2021/11/13 18:32:18;;;;;;;35.97;19.85;;;;;;;7.65;100.00;101582.19;10179812;28;21132;-69
2021/11/13 18:37:15;;;;;;;32.15;19.17;;;;;;;7.68;100.00;101581.66;10179079;28;20049;-68
2021/11/13 18:42:12;;;;;;;34.40;19.55;;;;;;;7.67;100.00;101595.53;10181496;28;20042;-68
2021/11/13 18:47:08;;;;;;;32.35;18.52;;;;;;;7.67;100.00;101590.09;10174613;28;20081;-68
2021/11/13 18:52:05;;;;;;;39.75;19.65;;;;;;;7.69;100.00;101598.78;10187610;28;20132;-68
2021/11/13 18:57:05;;;;;;;35.83;20.00;;;;;;;7.71;100.00;101597.41;10177606;28;20050;-68
2021/11/13 19:02:01;;;;;;;38.05;19.35;;;;;;;7.72;100.00;101604.47;10188450;28;20046;-68
2021/11/13 19:06:58;;;;;;;41.45;22.92;;;;;;;7.69;100.00;101605.03;10186761;28;20085;-68
2021/11/13 19:11:57;;;;;;;38.10;20.58;;;;;;;7.71;100.00;101602.88;10188813;28;20045;-68
2021/11/13 19:16:55;;;;;;;43.05;23.20;;;;;;;7.67;100.00;101612.66;10178376;28;20045;-69
2021/11/13 19:21:52;;;;;;;47.70;22.83;;;;;;;7.66;100.00;101616.50;10189467;28;20560;-68
2021/11/13 19:26:49;;;;;;;38.65;19.42;;;;;;;7.68;100.00;101614.31;10187192;28;20041;-69
2021/11/13 19:31:46;;;;;;;45.05;22.00;;;;;;;7.72;100.00;101623.53;10193645;28;20050;-68
2021/11/13 19:36:42;;;;;;;39.45;21.25;;;;;;;7.73;100.00;101622.47;10195202;28;20038;-68
2021/11/13 19:41:39;;;;;;;35.50;20.65;;;;;;;7.73;100.00;101617.00;10193221;28;20045;-69
2021/11/13 19:46:35;;;;;;;43.38;21.70;;;;;;;7.74;100.00;101628.72;10186513;28;20080;-68
2021/11/13 19:51:32;;;;;;;46.30;22.50;;;;;;;7.77;100.00;101631.72;10185756;28;20042;-68
2021/11/13 19:56:28;;;;;;;46.13;22.60;;;;;;;7.78;100.00;101635.25;10186755;28;20470;-68
2021/11/13 20:01:29;;;;;;;41.17;22.40;;;;;;;7.77;100.00;101639.03;10183774;28;20066;-68
2021/11/13 20:06:27;;;;;;;49.47;21.85;;;;;;;7.75;100.00;101646.66;10178469;28;20050;-69
2021/11/13 20:11:26;;;;;;;47.20;23.30;;;;;;;7.79;100.00;101654.00;10194163;28;20434;-69
2021/11/13 20:16:22;;;;;;;36.92;21.80;;;;;;;7.80;100.00;101666.53;10194181;28;20091;-68
2021/11/13 20:21:19;;;;;;;38.78;21.23;;;;;;;7.80;100.00;101669.25;10192704;28;20081;-67
2021/11/13 20:26:18;;;;;;;44.28;22.30;;;;;;;7.79;100.00;101681.22;10186189;28;20072;-68
2021/11/13 20:31:15;;;;;;;38.17;22.05;;;;;;;7.80;100.00;101682.88;10185651;28;20070;-67
2021/11/13 20:36:12;;;;;;;38.92;22.95;;;;;;;7.84;100.00;101690.50;10184727;28;20053;-68
2021/11/13 20:41:27;;;;;;;42.53;22.40;;;;;;;7.79;100.00;101686.69;10191250;28;20046;-68
2021/11/13 20:46:24;;;;;;;43.70;22.70;;;;;;;7.80;100.00;101692.97;10191149;28;20572;-69
2021/11/13 20:51:21;;;;;;;51.22;23.48;;;;;;;7.81;100.00;101700.03;10189711;28;20075;-68
2021/11/13 20:56:18;;;;;;;45.83;22.23;;;;;;;7.77;100.00;101710.66;10201856;28;20046;-68
2021/11/13 21:01:15;;;;;;;44.45;22.95;;;;;;;7.78;100.00;101701.38;10190114;28;20419;-69
2021/11/13 21:06:11;;;;;;;45.83;24.27;;;;;;;7.82;100.00;101711.72;10187753;28;20125;-68
2021/11/13 21:11:08;;;;;;;54.22;23.70;;;;;;;7.82;100.00;101718.00;10184584;28;20105;-68
2021/11/13 21:16:05;;;;;;;53.03;25.40;;;;;;;7.80;100.00;101714.75;10186144;28;20057;-66
2021/11/13 21:21:02;;;;;;;47.67;23.08;;;;;;;7.80;100.00;101725.63;10185323;28;20058;-68
2021/11/13 21:25:59;;;;;;;50.63;25.60;;;;;;;7.82;100.00;101719.91;10178024;28;20051;-68
2021/11/13 21:30:55;;;;;;;48.78;24.17;;;;;;;7.80;100.00;101720.19;10190596;28;20459;-68
2021/11/13 21:35:52;;;;;;;46.67;22.83;;;;;;;7.77;100.00;101735.16;10182887;28;20140;-68
2021/11/13 21:40:49;;;;;;;48.60;24.55;;;;;;;7.76;100.00;101740.88;10190160;28;20478;-68
2021/11/13 21:45:45;;;;;;;50.80;23.75;;;;;;;7.74;100.00;101737.59;10188230;28;20136;-68
2021/11/13 21:50:43;;;;;;;50.20;24.33;;;;;;;7.78;100.00;101750.41;10185494;28;20069;-68
2021/11/13 21:55:40;;;;;;;51.22;25.13;;;;;;;7.77;100.00;101756.94;10187699;28;20112;-68
2021/11/13 22:00:37;;;;;;;51.17;26.38;;;;;;;7.77;100.00;101761.56;10187956;28;20054;-69
2021/11/13 22:05:36;;;;;;;50.30;25.90;;;;;;;7.70;100.00;101764.53;10189443;28;20525;-68
2021/11/13 22:10:38;;;;;;;47.00;24.10;;;;;;;7.75;100.00;101772.72;10183444;28;20046;-68
2021/11/13 22:15:35;;;;;;;49.08;25.08;;;;;;;7.79;100.00;101771.06;10187401;28;20046;-68
2021/11/13 22:20:33;;;;;;;52.85;25.45;;;;;;;7.83;100.00;101781.44;10187587;28;20041;-69
2021/11/13 22:25:31;;;;;;;55.08;25.38;;;;;;;7.78;100.00;101787.72;10180076;28;20041;-68